Current | Forecast
Updated: 10:53 AM CEST on April 25, 2018
Observed at La Coruna Airport, Spain
Temperature 12°C
Humidity 100%
Dew Point 12°C
Wind North at 18 km/h
Wind Gust 39 km/h
Pressure 1024 hPa (Steady)
Conditions Light Drizzle
Visibility 1.5 kilometers
UV 1 out of 16
Clouds Mostly Cloudy (BKN) : 121 m
Overcast (OVC) : 365 m
Yesterday's Maximum 17°C
Yesterday's Minimum 13°C approx.
Yesterday's Heating Degree Days 6 approx.
Sunrise7:36 AM CEST
Sunset9:26 PM CEST
Moon Rise4:32 PM CEST
Moon Set5:30 AM CEST
Moon PhaseMoon Phase
Waxing Gibbous
Raw METARSPECI LECO 250853Z 36010G21KT 320V080 1500 -DZ BR BKN004 OVC012 12/12 Q1024 TEMPO 3000 SCT006


Monday
. High: 64° F.
Tuesday
. High: 59° F.
Wednesday
. High: 57° F.
Thursday
. High: 60° F.
Friday
. High: 69° F.
Saturday
. High: 66° F.
Sunday
. High: 71° F.
Monday
. High: 80° F.

Click here for Marine Information
Scientific forecaster discussion (NWS)

Units: English | Metric

Find the Weather for any City, State or Zipcode, or Country:

U.S. State List | Severe Weather | Tropical Storms | Ski Conditions
United States | Canada | Central America | South America | Asia | Europe | Australia | Africa | Islands

Weather Underground

© Copyright 2018
The Weather Company, LLC